createdAt,value
2017-11-23T00:00:11.586Z,0
2017-11-23T00:01:12.193Z,0
2017-11-23T00:02:12.787Z,0
2017-11-23T00:03:13.384Z,0
2017-11-23T00:04:13.987Z,0
2017-11-23T00:05:14.594Z,0
2017-11-23T00:06:15.193Z,0
2017-11-23T00:07:15.791Z,0
2017-11-23T00:08:16.402Z,0
2017-11-23T00:09:17.005Z,0
2017-11-23T00:10:17.614Z,0
2017-11-23T00:11:18.233Z,0
2017-11-23T00:12:18.830Z,0
2017-11-23T00:13:19.427Z,0
2017-11-23T00:14:20.041Z,0
2017-11-23T00:15:20.643Z,0
2017-11-23T00:16:21.240Z,0
2017-11-23T00:17:21.846Z,0
2017-11-23T00:18:22.466Z,0
2017-11-23T00:19:23.065Z,0
2017-11-23T00:20:23.681Z,0
2017-11-23T00:21:24.279Z,0
2017-11-23T00:22:24.878Z,0
2017-11-23T00:23:25.479Z,0
2017-11-23T00:24:26.096Z,0
2017-11-23T00:25:26.709Z,0
2017-11-23T00:26:27.312Z,0
2017-11-23T00:27:27.905Z,0
2017-11-23T00:28:28.514Z,0
2017-11-23T00:29:29.120Z,0
2017-11-23T00:30:29.732Z,0
2017-11-23T00:31:30.320Z,0
2017-11-23T00:32:30.931Z,0
2017-11-23T00:33:31.530Z,0
2017-11-23T00:34:32.161Z,0
2017-11-23T00:35:32.768Z,0
2017-11-23T00:36:33.367Z,0
2017-11-23T00:37:33.982Z,0
2017-11-23T00:38:34.585Z,0
2017-11-23T00:39:35.194Z,0
2017-11-23T00:40:35.789Z,0
2017-11-23T00:41:36.399Z,0
2017-11-23T00:42:37.020Z,0
2017-11-23T00:43:37.632Z,0
2017-11-23T00:44:38.247Z,0
2017-11-23T00:45:38.854Z,0
2017-11-23T00:46:39.456Z,0
2017-11-23T00:47:40.056Z,0
2017-11-23T00:48:40.650Z,0
2017-11-23T00:49:41.260Z,0
2017-11-23T00:50:41.871Z,0
2017-11-23T00:51:42.471Z,0
2017-11-23T00:52:43.076Z,0
2017-11-23T00:53:43.693Z,0
2017-11-23T00:54:44.306Z,0
2017-11-23T00:55:44.894Z,0
2017-11-23T00:56:45.502Z,0
2017-11-23T00:57:46.102Z,0
2017-11-23T00:58:46.712Z,0
2017-11-23T00:59:47.311Z,0
2017-11-23T01:01:32.120Z,0
2017-11-23T01:02:32.728Z,0
2017-11-23T01:03:33.317Z,0
2017-11-23T01:04:33.930Z,0
2017-11-23T01:05:34.542Z,0
2017-11-23T01:06:35.139Z,0
2017-11-23T01:07:35.734Z,0
2017-11-23T01:08:36.344Z,0
2017-11-23T01:09:36.956Z,0
2017-11-23T01:10:37.569Z,0
2017-11-23T01:11:38.180Z,0
2017-11-23T01:12:38.792Z,0
2017-11-23T01:13:39.386Z,0
2017-11-23T01:14:39.991Z,0
2017-11-23T01:15:40.585Z,0
2017-11-23T01:16:41.189Z,0
2017-11-23T01:17:41.785Z,0
2017-11-23T01:18:42.381Z,0
2017-11-23T01:19:42.985Z,0
2017-11-23T01:20:43.594Z,0
2017-11-23T01:21:44.194Z,0
2017-11-23T01:22:44.803Z,0
2017-11-23T01:23:45.413Z,0
2017-11-23T01:24:46.012Z,0
2017-11-23T01:25:46.620Z,0
2017-11-23T01:26:47.211Z,0
2017-11-23T01:27:47.822Z,0
2017-11-23T01:28:48.455Z,0
2017-11-23T01:29:49.043Z,0
2017-11-23T01:30:49.643Z,0
2017-11-23T01:31:50.252Z,0
2017-11-23T01:32:50.857Z,0
2017-11-23T01:33:51.472Z,0
2017-11-23T01:34:52.088Z,0
2017-11-23T01:35:52.695Z,0
2017-11-23T01:36:53.294Z,0
2017-11-23T01:37:53.912Z,0
2017-11-23T01:38:54.523Z,0
2017-11-23T01:39:55.132Z,0
2017-11-23T01:40:55.730Z,0
2017-11-23T01:41:56.337Z,0
2017-11-23T01:42:56.944Z,0
2017-11-23T01:43:57.547Z,0
2017-11-23T01:44:58.149Z,0
2017-11-23T01:45:58.757Z,0
2017-11-23T01:46:59.360Z,0
2017-11-23T01:47:59.966Z,0
2017-11-23T01:49:00.559Z,0
2017-11-23T01:50:01.152Z,0
2017-11-23T01:51:01.750Z,0
2017-11-23T01:52:02.350Z,0
2017-11-23T01:53:02.953Z,0
2017-11-23T01:54:03.561Z,0
2017-11-23T01:55:04.169Z,0
2017-11-23T01:56:04.773Z,0
2017-11-23T01:57:05.379Z,0
2017-11-23T01:58:05.978Z,0
2017-11-23T01:59:06.589Z,0
2017-11-23T02:00:07.195Z,0
2017-11-23T02:01:07.799Z,0
2017-11-23T02:02:08.414Z,0
2017-11-23T02:03:09.004Z,0
2017-11-23T02:04:09.610Z,0
2017-11-23T02:05:10.210Z,0
2017-11-23T02:06:10.827Z,0
2017-11-23T02:07:11.440Z,0
2017-11-23T02:08:12.043Z,0
2017-11-23T02:09:12.654Z,0
2017-11-23T02:10:13.268Z,0
2017-11-23T02:11:13.888Z,0
2017-11-23T02:12:14.479Z,0
2017-11-23T02:13:15.079Z,0
2017-11-23T02:14:15.701Z,0
2017-11-23T02:15:16.319Z,0
2017-11-23T02:16:16.916Z,0
2017-11-23T02:17:17.516Z,0
2017-11-23T02:18:18.131Z,0
2017-11-23T02:19:18.745Z,0
2017-11-23T02:20:19.361Z,0
2017-11-23T02:21:19.981Z,0
2017-11-23T02:22:20.590Z,0
2017-11-23T02:23:21.190Z,0
2017-11-23T02:24:21.800Z,0
2017-11-23T02:25:22.402Z,0
2017-11-23T02:26:23.009Z,0
2017-11-23T02:27:23.609Z,0
2017-11-23T02:28:24.228Z,0
2017-11-23T02:29:24.835Z,0
2017-11-23T02:30:25.445Z,0
2017-11-23T02:31:26.049Z,0
2017-11-23T02:32:26.645Z,0
2017-11-23T02:33:27.238Z,0
2017-11-23T02:34:27.837Z,0
2017-11-23T02:35:28.455Z,0
2017-11-23T02:36:29.047Z,0
2017-11-23T02:37:29.652Z,0
2017-11-23T02:38:30.255Z,0
2017-11-23T02:39:30.858Z,0
2017-11-23T02:40:31.460Z,0
2017-11-23T02:41:32.077Z,0
2017-11-23T02:42:32.680Z,0
2017-11-23T02:43:33.290Z,0
2017-11-23T02:44:33.900Z,0
2017-11-23T02:45:34.514Z,0
2017-11-23T02:46:35.115Z,0
2017-11-23T02:47:35.716Z,0
2017-11-23T02:48:36.317Z,0
2017-11-23T02:49:36.933Z,0
2017-11-23T02:50:37.547Z,0
2017-11-23T02:51:38.147Z,0
2017-11-23T02:52:38.761Z,0
2017-11-23T02:53:39.361Z,0
2017-11-23T02:54:39.965Z,0
2017-11-23T02:55:40.564Z,0
2017-11-23T02:56:41.175Z,0
2017-11-23T02:57:41.792Z,0
2017-11-23T02:58:42.408Z,0
2017-11-23T02:59:43.017Z,0
2017-11-23T03:00:43.608Z,0
2017-11-23T03:01:44.221Z,0
2017-11-23T03:02:44.820Z,0
2017-11-23T03:03:45.422Z,0
2017-11-23T03:04:46.022Z,0
2017-11-23T03:05:46.637Z,0
2017-11-23T03:06:47.229Z,0
2017-11-23T03:07:47.840Z,0
2017-11-23T03:08:48.455Z,0
2017-11-23T03:09:49.049Z,0
2017-11-23T03:10:49.655Z,0
2017-11-23T03:11:50.259Z,0
2017-11-23T03:12:50.866Z,0
2017-11-23T03:13:51.469Z,0
2017-11-23T03:14:52.068Z,0
2017-11-23T03:15:52.681Z,0
2017-11-23T03:16:53.287Z,0
2017-11-23T03:17:53.901Z,0
2017-11-23T03:18:54.508Z,0
2017-11-23T03:19:55.112Z,0
2017-11-23T03:20:55.713Z,0
2017-11-23T03:21:56.316Z,0
2017-11-23T03:22:56.934Z,0
2017-11-23T03:23:57.525Z,0
2017-11-23T03:24:58.118Z,0
2017-11-23T03:25:58.717Z,0
2017-11-23T03:26:59.325Z,0
2017-11-23T03:27:59.935Z,0
2017-11-23T03:29:00.535Z,0
2017-11-23T03:30:01.139Z,0
2017-11-23T03:31:01.744Z,0
2017-11-23T03:32:02.346Z,0
2017-11-23T03:33:02.963Z,0
2017-11-23T03:34:03.566Z,0
2017-11-23T03:35:04.163Z,0
2017-11-23T03:36:04.776Z,0
2017-11-23T03:37:05.382Z,0
2017-11-23T03:38:05.993Z,0
2017-11-23T03:39:06.596Z,0
2017-11-23T03:40:07.188Z,0
2017-11-23T03:41:07.788Z,0
2017-11-23T03:42:08.397Z,0
2017-11-23T03:43:09.000Z,0
2017-11-23T03:44:09.609Z,0
2017-11-23T03:45:10.208Z,0
2017-11-23T03:46:10.819Z,0
2017-11-23T03:47:11.426Z,0
2017-11-23T03:48:12.028Z,0
2017-11-23T03:49:12.623Z,0
2017-11-23T03:50:13.217Z,0
2017-11-23T03:51:13.829Z,0
2017-11-23T03:52:14.419Z,0
2017-11-23T03:53:15.027Z,0
2017-11-23T03:54:15.636Z,0
2017-11-23T03:55:16.244Z,0
2017-11-23T03:56:16.837Z,0
2017-11-23T03:57:17.437Z,0
2017-11-23T03:58:18.044Z,0
2017-11-23T03:59:18.660Z,0
2017-11-23T04:00:19.266Z,0
2017-11-23T04:01:19.858Z,0
2017-11-23T04:02:20.460Z,0
2017-11-23T04:03:21.076Z,0
2017-11-23T04:04:21.673Z,0
2017-11-23T04:05:22.283Z,0
2017-11-23T04:06:22.879Z,0
2017-11-23T04:07:23.479Z,0
2017-11-23T04:08:24.080Z,0
2017-11-23T04:09:24.693Z,0
2017-11-23T04:10:25.291Z,0
2017-11-23T04:11:25.908Z,0
2017-11-23T04:12:26.532Z,0
2017-11-23T04:13:27.134Z,0
2017-11-23T04:14:27.741Z,0
2017-11-23T04:15:28.344Z,0
2017-11-23T04:16:28.948Z,0
2017-11-23T04:17:29.559Z,0
2017-11-23T04:18:30.179Z,0
2017-11-23T04:19:30.771Z,0
2017-11-23T04:20:31.379Z,0
2017-11-23T04:21:31.990Z,0
2017-11-23T04:22:32.597Z,0
2017-11-23T04:23:33.197Z,0
2017-11-23T04:24:33.800Z,0
2017-11-23T04:25:34.412Z,0
2017-11-23T04:26:35.011Z,0
2017-11-23T04:27:35.625Z,0
2017-11-23T04:28:36.229Z,0
2017-11-23T04:29:36.830Z,0
2017-11-23T04:30:37.440Z,0
2017-11-23T04:31:38.044Z,0
2017-11-23T04:32:38.643Z,0
2017-11-23T04:33:39.247Z,0
2017-11-23T04:34:39.860Z,0
2017-11-23T04:35:40.466Z,0
2017-11-23T04:36:41.062Z,0
2017-11-23T04:37:41.667Z,0
2017-11-23T04:38:42.275Z,0
2017-11-23T04:39:42.884Z,0
2017-11-23T04:40:43.486Z,0
2017-11-23T04:41:44.077Z,0
2017-11-23T04:42:44.673Z,0
2017-11-23T04:43:45.274Z,0
2017-11-23T04:44:45.886Z,0
2017-11-23T04:45:46.480Z,0
2017-11-23T04:46:47.087Z,0
2017-11-23T04:47:47.679Z,0
2017-11-23T04:48:48.270Z,0
2017-11-23T04:49:48.877Z,0
2017-11-23T04:50:49.474Z,0
2017-11-23T04:51:50.074Z,0
2017-11-23T04:52:50.676Z,0
2017-11-23T04:53:51.269Z,0
2017-11-23T04:54:51.875Z,0
2017-11-23T04:55:52.475Z,0
2017-11-23T04:56:53.069Z,0
2017-11-23T04:57:53.662Z,0
2017-11-23T04:58:54.265Z,0
2017-11-23T04:59:54.872Z,0
2017-11-23T05:00:55.469Z,0
2017-11-23T05:01:56.092Z,0
2017-11-23T05:02:56.688Z,0
2017-11-23T05:03:57.303Z,0
2017-11-23T05:04:57.927Z,0
2017-11-23T05:05:58.525Z,0
2017-11-23T05:06:59.127Z,0
2017-11-23T05:07:59.735Z,0
2017-11-23T05:09:00.334Z,0
2017-11-23T05:10:00.953Z,0
2017-11-23T05:11:01.557Z,0
2017-11-23T05:12:02.161Z,0
2017-11-23T05:13:02.769Z,0
2017-11-23T05:14:03.381Z,0
2017-11-23T05:15:03.997Z,0
2017-11-23T05:16:04.609Z,0
2017-11-23T05:17:05.209Z,0
2017-11-23T05:18:05.822Z,0
2017-11-23T05:19:06.430Z,0
2017-11-23T05:20:07.037Z,0
2017-11-23T05:21:07.642Z,0
2017-11-23T05:22:08.232Z,0
2017-11-23T05:23:08.834Z,0
2017-11-23T05:24:09.443Z,0
2017-11-23T05:25:10.037Z,0
2017-11-23T05:26:10.640Z,0
2017-11-23T05:27:11.251Z,0
2017-11-23T05:28:11.866Z,0
2017-11-23T05:29:12.481Z,0
2017-11-23T05:30:13.100Z,0
2017-11-23T05:31:13.714Z,0
2017-11-23T05:32:14.313Z,0
2017-11-23T05:33:14.902Z,0
2017-11-23T05:34:15.508Z,0
2017-11-23T05:35:16.105Z,0
2017-11-23T05:36:16.702Z,0
2017-11-23T05:37:17.304Z,0
2017-11-23T05:38:17.904Z,0
2017-11-23T05:39:18.533Z,0
2017-11-23T05:40:19.105Z,0
2017-11-23T05:41:19.706Z,0
2017-11-23T05:42:20.311Z,0
2017-11-23T05:43:20.921Z,0
2017-11-23T05:44:21.528Z,0
2017-11-23T05:45:22.113Z,0
2017-11-23T05:46:22.720Z,0
2017-11-23T05:47:23.328Z,0
2017-11-23T05:48:23.946Z,0
2017-11-23T05:49:24.549Z,0
2017-11-23T05:50:25.162Z,0
2017-11-23T05:51:25.764Z,0
2017-11-23T05:52:26.373Z,0
2017-11-23T05:53:27.022Z,0
2017-11-23T05:54:27.616Z,0
2017-11-23T05:55:28.231Z,0
2017-11-23T05:56:28.839Z,0
2017-11-23T05:57:29.444Z,0
2017-11-23T05:58:30.045Z,0
2017-11-23T05:59:30.662Z,0
2017-11-23T06:00:31.298Z,0
2017-11-23T06:01:31.895Z,0
2017-11-23T06:02:32.510Z,0
2017-11-23T06:03:33.115Z,0
2017-11-23T06:04:33.727Z,0
2017-11-23T06:05:34.340Z,0
2017-11-23T06:06:34.953Z,0
2017-11-23T06:07:35.554Z,0
2017-11-23T06:08:36.165Z,0
2017-11-23T06:09:36.764Z,0
2017-11-23T06:10:37.357Z,0
2017-11-23T06:11:37.948Z,0
2017-11-23T06:12:38.551Z,0
2017-11-23T06:13:39.169Z,0
2017-11-23T06:14:39.757Z,0
2017-11-23T06:15:40.366Z,0
2017-11-23T06:16:40.975Z,0
2017-11-23T06:17:41.570Z,0
2017-11-23T06:18:42.177Z,0
2017-11-23T06:19:42.776Z,0
2017-11-23T06:20:43.382Z,0
2017-11-23T06:21:44.001Z,0
2017-11-23T06:22:44.589Z,0
2017-11-23T06:23:45.208Z,0
2017-11-23T06:24:45.814Z,0
2017-11-23T06:25:46.417Z,0
2017-11-23T06:26:47.026Z,0
2017-11-23T06:27:47.637Z,4
2017-11-23T06:28:48.236Z,4
2017-11-23T06:29:48.848Z,4
2017-11-23T06:30:49.451Z,0
2017-11-23T06:31:50.044Z,4
2017-11-23T06:32:50.651Z,4
2017-11-23T06:33:51.261Z,8
2017-11-23T06:34:51.855Z,4
2017-11-23T06:35:52.454Z,8
2017-11-23T06:36:53.068Z,12
2017-11-23T06:37:53.664Z,12
2017-11-23T06:38:54.281Z,12
2017-11-23T06:39:54.900Z,16
2017-11-23T06:40:55.500Z,16
2017-11-23T06:41:56.109Z,24
2017-11-23T06:42:56.712Z,24
2017-11-23T06:43:57.306Z,32
2017-11-23T06:44:57.920Z,40
2017-11-23T06:45:58.526Z,48
2017-11-23T06:46:59.134Z,56
2017-11-23T06:47:59.724Z,64
2017-11-23T06:49:00.324Z,76
2017-11-23T06:50:00.938Z,88
2017-11-23T06:51:01.535Z,100
2017-11-23T06:52:02.149Z,112
2017-11-23T06:53:02.764Z,124
2017-11-23T06:54:03.357Z,140
2017-11-23T06:55:03.962Z,152
2017-11-23T06:56:04.579Z,172
2017-11-23T06:57:05.183Z,188
2017-11-23T06:58:05.770Z,208
2017-11-23T06:59:06.377Z,228
2017-11-23T07:00:06.981Z,244
2017-11-23T07:01:07.592Z,264
2017-11-23T07:02:08.200Z,292
2017-11-23T07:03:08.811Z,316
2017-11-23T07:04:09.423Z,340
2017-11-23T07:05:10.027Z,372
2017-11-23T07:06:10.637Z,400
2017-11-23T07:07:11.247Z,432
2017-11-23T07:08:11.851Z,464
2017-11-23T07:09:12.471Z,496
2017-11-23T07:10:13.097Z,528
2017-11-23T07:11:13.704Z,560
2017-11-23T07:12:14.316Z,596
2017-11-23T07:13:14.937Z,632
2017-11-23T07:14:15.530Z,668
2017-11-23T07:15:16.138Z,704
2017-11-23T07:16:16.752Z,744
2017-11-23T07:17:17.352Z,784
2017-11-23T07:18:17.956Z,824
2017-11-23T07:19:18.574Z,864
2017-11-23T07:20:19.186Z,900
2017-11-23T07:21:19.780Z,940
2017-11-23T07:22:20.379Z,988
2017-11-23T07:23:20.996Z,1040
2017-11-23T07:24:21.614Z,1088
2017-11-23T07:25:22.226Z,1144
2017-11-23T07:26:22.837Z,1192
2017-11-23T07:27:23.447Z,1268
2017-11-23T07:28:24.072Z,1336
2017-11-23T07:29:24.682Z,1404
2017-11-23T07:30:25.299Z,1496
2017-11-23T07:31:25.911Z,1580
2017-11-23T07:32:26.532Z,1648
2017-11-23T07:33:27.150Z,1728
2017-11-23T07:34:27.767Z,1792
2017-11-23T07:35:28.387Z,1876
2017-11-23T07:36:29.006Z,1976
2017-11-23T07:37:29.613Z,2088
2017-11-23T07:38:30.221Z,2176
2017-11-23T07:39:30.841Z,2156
2017-11-23T07:40:31.458Z,2220
2017-11-23T07:41:32.066Z,2316
2017-11-23T07:42:32.677Z,2292
2017-11-23T07:43:33.273Z,2200
2017-11-23T07:44:33.876Z,2128
2017-11-23T07:45:34.525Z,2072
2017-11-23T07:46:35.125Z,2064
2017-11-23T07:47:35.731Z,2072
2017-11-23T07:48:36.352Z,2152
2017-11-23T07:49:36.976Z,2256
2017-11-23T07:50:37.575Z,2400
2017-11-23T07:51:38.193Z,2532
2017-11-23T07:52:38.806Z,2664
2017-11-23T07:53:39.413Z,2856
2017-11-23T07:54:40.022Z,3112
2017-11-23T07:55:40.634Z,3156
2017-11-23T07:56:41.242Z,3088
2017-11-23T07:57:41.849Z,3220
2017-11-23T07:58:42.458Z,3448
2017-11-23T07:59:43.059Z,3668
2017-11-23T08:00:43.683Z,3780
2017-11-23T08:01:44.280Z,3760
2017-11-23T08:02:44.897Z,3588
2017-11-23T08:03:45.514Z,3496
2017-11-23T08:04:46.123Z,3392
2017-11-23T08:05:46.737Z,3388
2017-11-23T08:06:47.350Z,3388
2017-11-23T08:07:47.966Z,3464
2017-11-23T08:08:48.590Z,3572
2017-11-23T08:09:49.209Z,3540
2017-11-23T08:10:49.809Z,3588
2017-11-23T08:11:50.416Z,3604
2017-11-23T08:12:51.019Z,3716
2017-11-23T08:13:51.635Z,3752
2017-11-23T08:14:52.250Z,3700
2017-11-23T08:15:52.860Z,3748
2017-11-23T08:16:53.471Z,3820
2017-11-23T08:17:54.090Z,3972
2017-11-23T08:18:54.716Z,3976
2017-11-23T08:19:55.332Z,3992
2017-11-23T08:20:55.953Z,4036
2017-11-23T08:21:56.565Z,4100
2017-11-23T08:22:57.190Z,4224
2017-11-23T08:23:57.810Z,4380
2017-11-23T08:24:58.426Z,4592
2017-11-23T08:25:59.045Z,4548
2017-11-23T08:26:59.660Z,4280
2017-11-23T08:28:00.296Z,4376
2017-11-23T08:29:00.924Z,4520
2017-11-23T08:30:01.549Z,4524
2017-11-23T08:31:02.156Z,4564
2017-11-23T08:32:02.781Z,4640
2017-11-23T08:33:03.375Z,4724
2017-11-23T08:34:03.989Z,5236
2017-11-23T08:35:04.613Z,5056
2017-11-23T08:36:05.226Z,5196
2017-11-23T08:37:05.842Z,4716
2017-11-23T08:38:06.458Z,4784
2017-11-23T08:39:07.053Z,5204
2017-11-23T08:40:07.677Z,6556
2017-11-23T08:41:08.281Z,6612
2017-11-23T08:42:08.889Z,7304
2017-11-23T08:43:09.564Z,7152
2017-11-23T08:44:10.189Z,7116
2017-11-23T08:45:10.808Z,6688
2017-11-23T08:46:11.444Z,6076
2017-11-23T08:47:12.063Z,6604
2017-11-23T08:48:12.682Z,8340
2017-11-23T08:49:13.307Z,9288
2017-11-23T08:50:13.930Z,9428
2017-11-23T08:51:14.535Z,7780
2017-11-23T08:52:15.155Z,9308
2017-11-23T08:53:15.779Z,9456
2017-11-23T08:54:16.408Z,9328
2017-11-23T08:55:17.030Z,9540
2017-11-23T08:56:17.635Z,9140
2017-11-23T08:57:18.250Z,9772
2017-11-23T08:58:18.879Z,9476
2017-11-23T08:59:19.509Z,10040
2017-11-23T09:00:20.124Z,8392
2017-11-23T09:01:20.731Z,8396
2017-11-23T09:02:21.345Z,6944
2017-11-23T09:03:21.991Z,5556
2017-11-23T09:04:22.589Z,6112
2017-11-23T09:05:23.206Z,6376
2017-11-23T09:06:23.834Z,6232
2017-11-23T09:07:24.463Z,6440
2017-11-23T09:08:25.100Z,5936
2017-11-23T09:09:25.727Z,6168
2017-11-23T09:10:26.345Z,6964
2017-11-23T09:11:26.971Z,6212
2017-11-23T09:12:27.583Z,9248
2017-11-23T09:13:28.186Z,11392
2017-11-23T09:14:28.801Z,12664
2017-11-23T09:15:29.432Z,11428
2017-11-23T09:16:30.052Z,11340
2017-11-23T09:17:30.672Z,12428
2017-11-23T09:18:31.606Z,6624
2017-11-23T09:19:32.252Z,10712
2017-11-23T09:20:32.866Z,8492
2017-11-23T09:21:33.513Z,10048
2017-11-23T09:22:34.150Z,13468
2017-11-23T09:23:34.779Z,9208
2017-11-23T09:24:35.417Z,13724
2017-11-23T09:25:36.034Z,13532
2017-11-23T09:26:36.654Z,13784
2017-11-23T09:27:37.283Z,12996
2017-11-23T09:28:37.903Z,13116
2017-11-23T09:29:38.529Z,12996
2017-11-23T09:30:39.158Z,11456
2017-11-23T09:31:39.775Z,11736
2017-11-23T09:32:40.403Z,9668
2017-11-23T09:33:41.022Z,11748
2017-11-23T09:34:41.647Z,7784
2017-11-23T09:35:42.267Z,7184
2017-11-23T09:36:42.887Z,7620
2017-11-23T09:37:43.529Z,7524
2017-11-23T09:38:44.172Z,8492
2017-11-23T09:39:44.789Z,12940
2017-11-23T09:40:45.401Z,15752
2017-11-23T09:41:46.021Z,16124
2017-11-23T09:42:46.647Z,15728
2017-11-23T09:43:47.264Z,14648
2017-11-23T09:44:47.920Z,12124
2017-11-23T09:45:48.532Z,12588
2017-11-23T09:46:49.150Z,13732
2017-11-23T09:47:49.757Z,11780
2017-11-23T09:48:50.390Z,9064
2017-11-23T09:49:51.018Z,9440
2017-11-23T09:50:51.638Z,9744
2017-11-23T09:51:52.262Z,10292
2017-11-23T09:52:52.888Z,9700
2017-11-23T09:53:53.489Z,9708
2017-11-23T09:54:54.098Z,11388
2017-11-23T09:55:54.714Z,10936
2017-11-23T09:56:55.330Z,13972
2017-11-23T09:57:55.947Z,16912
2017-11-23T09:58:56.565Z,17484
2017-11-23T09:59:57.197Z,15512
2017-11-23T10:00:57.820Z,14064
2017-11-23T10:01:58.513Z,10568
2017-11-23T10:02:59.116Z,14248
2017-11-23T10:03:59.746Z,11936
2017-11-23T10:05:00.385Z,12184
2017-11-23T10:06:01.025Z,10948
2017-11-23T10:07:01.662Z,17052
2017-11-23T10:08:02.295Z,16772
2017-11-23T10:09:02.931Z,20224
2017-11-23T10:10:03.534Z,17192
2017-11-23T10:11:04.155Z,19040
2017-11-23T10:12:04.761Z,14852
2017-11-23T10:13:05.379Z,14676
2017-11-23T10:14:06.009Z,15040
2017-11-23T10:15:06.631Z,15016
2017-11-23T10:16:07.238Z,14628
2017-11-23T10:17:07.880Z,14152
2017-11-23T10:18:08.483Z,14444
2017-11-23T10:19:09.113Z,15460
2017-11-23T10:20:09.744Z,16308
2017-11-23T10:21:10.359Z,17564
2017-11-23T10:22:10.965Z,20160
2017-11-23T10:23:11.595Z,21920
2017-11-23T10:24:12.225Z,22336
2017-11-23T10:25:12.847Z,21280
2017-11-23T10:26:13.491Z,17932
2017-11-23T10:27:14.131Z,14704
2017-11-23T10:28:14.763Z,12360
2017-11-23T10:29:15.409Z,11392
2017-11-23T10:30:16.044Z,11536
2017-11-23T10:31:16.668Z,12328
2017-11-23T10:32:17.306Z,13200
2017-11-23T10:33:17.904Z,14160
2017-11-23T10:34:18.510Z,14756
2017-11-23T10:35:19.114Z,14892
2017-11-23T10:36:19.736Z,14996
2017-11-23T10:37:20.369Z,15460
2017-11-23T10:38:20.992Z,16428
2017-11-23T10:39:21.625Z,16264
2017-11-23T10:40:22.245Z,15532
2017-11-23T10:41:22.863Z,16380
2017-11-23T10:42:23.491Z,17568
2017-11-23T10:43:24.117Z,19712
2017-11-23T10:44:24.723Z,21600
2017-11-23T10:45:25.339Z,22240
2017-11-23T10:46:25.952Z,21888
2017-11-23T10:47:26.574Z,22400
2017-11-23T10:48:27.186Z,22432
2017-11-23T10:49:27.801Z,22016
2017-11-23T10:50:28.403Z,21984
2017-11-23T10:51:29.022Z,22912
2017-11-23T10:52:29.637Z,24128
2017-11-23T10:53:30.244Z,23776
2017-11-23T10:54:30.869Z,22496
2017-11-23T10:55:31.494Z,20064
2017-11-23T10:56:32.100Z,18160
2017-11-23T10:57:32.724Z,17044
2017-11-23T10:58:33.358Z,15800
2017-11-23T10:59:33.983Z,14416
2017-11-23T11:00:34.603Z,14000
2017-11-23T11:01:35.214Z,14364
2017-11-23T11:02:35.827Z,13564
2017-11-23T11:03:36.446Z,13500
2017-11-23T11:04:37.058Z,12956
2017-11-23T11:05:37.682Z,12276
2017-11-23T11:06:38.292Z,13236
2017-11-23T11:07:38.918Z,13536
2017-11-23T11:08:39.557Z,13220
2017-11-23T11:09:40.197Z,18260
2017-11-23T11:10:40.831Z,17272
2017-11-23T11:11:41.471Z,15236
2017-11-23T11:12:42.080Z,16956
2017-11-23T11:13:42.706Z,16228
2017-11-23T11:14:43.345Z,14048
2017-11-23T11:15:43.976Z,11400
2017-11-23T11:16:44.799Z,12532
2017-11-23T11:17:45.413Z,16264
2017-11-23T11:18:46.043Z,18636
2017-11-23T11:19:46.665Z,16500
2017-11-23T11:20:47.285Z,20512
2017-11-23T11:21:47.920Z,17176
2017-11-23T11:22:48.548Z,17772
2017-11-23T11:23:49.184Z,14044
2017-11-23T11:24:50.060Z,13552
2017-11-23T11:25:50.688Z,15156
2017-11-23T11:26:51.325Z,15088
2017-11-23T11:27:51.953Z,22560
2017-11-23T11:28:52.580Z,16832
2017-11-23T11:29:53.196Z,11028
2017-11-23T11:30:53.816Z,9424
2017-11-23T11:31:54.444Z,8040
2017-11-23T11:32:55.044Z,7920
2017-11-23T11:33:55.670Z,7564
2017-11-23T11:34:56.279Z,7132
2017-11-23T11:35:56.905Z,9192
2017-11-23T11:36:57.738Z,12344
2017-11-23T11:37:58.372Z,13168
2017-11-23T11:38:58.982Z,10696
2017-11-23T11:39:59.612Z,7016
2017-11-23T11:41:00.217Z,5256
2017-11-23T11:42:00.846Z,3568
2017-11-23T11:43:01.451Z,4560
2017-11-23T11:44:02.075Z,5800
2017-11-23T11:45:02.705Z,5596
2017-11-23T11:46:03.317Z,6844
2017-11-23T11:47:03.929Z,6932
2017-11-23T11:48:04.543Z,5208
2017-11-23T11:49:05.159Z,4240
2017-11-23T11:50:05.794Z,5708
2017-11-23T11:51:06.430Z,9380
2017-11-23T11:52:07.062Z,9056
2017-11-23T11:53:07.691Z,9860
2017-11-23T11:54:08.329Z,14844
2017-11-23T11:55:08.948Z,13132
2017-11-23T11:56:09.584Z,12932
2017-11-23T11:57:10.198Z,14856
2017-11-23T11:58:10.814Z,19648
2017-11-23T11:59:11.451Z,19552
2017-11-23T12:00:12.089Z,16684
2017-11-23T12:01:12.759Z,11708
2017-11-23T12:02:13.335Z,9380
2017-11-23T12:03:13.952Z,8288
2017-11-23T12:04:14.559Z,10132
2017-11-23T12:05:15.191Z,11316
2017-11-23T12:06:15.963Z,11944
2017-11-23T12:07:16.592Z,15536
2017-11-23T12:08:17.203Z,12636
2017-11-23T12:09:17.844Z,15924
2017-11-23T12:10:18.479Z,14544
2017-11-23T12:11:19.087Z,14912
2017-11-23T12:12:19.702Z,14652
2017-11-23T12:13:20.338Z,13776
2017-11-23T12:14:20.959Z,15620
2017-11-23T12:15:21.594Z,13748
2017-11-23T12:16:22.254Z,12116
2017-11-23T12:17:22.884Z,12520
2017-11-23T12:18:23.503Z,11188
2017-11-23T12:19:24.113Z,8596
2017-11-23T12:20:24.963Z,6968
2017-11-23T12:21:25.778Z,6312
2017-11-23T12:22:26.409Z,6216
2017-11-23T12:23:27.023Z,6252
2017-11-23T12:24:27.656Z,6364
2017-11-23T12:25:28.295Z,6856
2017-11-23T12:26:28.933Z,6756
2017-11-23T12:27:29.574Z,7144
2017-11-23T12:28:30.154Z,6620
2017-11-23T12:29:30.792Z,6376
2017-11-23T12:30:31.419Z,6304
2017-11-23T12:31:32.284Z,6164
2017-11-23T12:32:32.920Z,5960
2017-11-23T12:33:33.547Z,5908
2017-11-23T12:34:34.183Z,5864
2017-11-23T12:35:34.816Z,5844
2017-11-23T12:36:35.442Z,5808
2017-11-23T12:37:36.070Z,5788
2017-11-23T12:38:36.697Z,5760
2017-11-23T12:39:37.325Z,5828
2017-11-23T12:40:37.952Z,5992
2017-11-23T12:41:38.578Z,5888
2017-11-23T12:42:39.202Z,5688
2017-11-23T12:43:39.824Z,5528
2017-11-23T12:44:40.439Z,5476
2017-11-23T12:45:41.074Z,5512
2017-11-23T12:46:41.711Z,5580
2017-11-23T12:47:42.332Z,5524
2017-11-23T12:48:42.940Z,5496
2017-11-23T12:49:43.563Z,5452
2017-11-23T12:50:44.194Z,5456
2017-11-23T12:51:44.809Z,5544
2017-11-23T12:52:45.424Z,5656
2017-11-23T12:53:46.055Z,5608
2017-11-23T12:54:46.669Z,5640
2017-11-23T12:55:47.277Z,5780
2017-11-23T12:56:48.090Z,5768
2017-11-23T12:57:48.704Z,5824
2017-11-23T12:58:49.308Z,5688
2017-11-23T12:59:49.943Z,5580
2017-11-23T13:00:50.570Z,5532
2017-11-23T13:01:51.194Z,5540
2017-11-23T13:02:51.799Z,5860
2017-11-23T13:03:52.419Z,7408
2017-11-23T13:04:53.025Z,9240
2017-11-23T13:05:53.643Z,8884
2017-11-23T13:06:54.263Z,8056
2017-11-23T13:07:54.887Z,6528
2017-11-23T13:08:55.510Z,5888
2017-11-23T13:09:56.129Z,5848
2017-11-23T13:10:56.764Z,7192
2017-11-23T13:11:57.399Z,7980
2017-11-23T13:12:58.011Z,8168
2017-11-23T13:13:58.629Z,6980
2017-11-23T13:14:59.255Z,7380
2017-11-23T13:15:59.864Z,7736
2017-11-23T13:17:00.489Z,7952
2017-11-23T13:18:01.125Z,7224
2017-11-23T13:19:01.725Z,9272
2017-11-23T13:20:02.348Z,11636
2017-11-23T13:21:02.969Z,13192
2017-11-23T13:22:03.619Z,14020
2017-11-23T13:23:04.220Z,13176
2017-11-23T13:24:04.836Z,12704
2017-11-23T13:25:05.458Z,8072
2017-11-23T13:26:06.097Z,6768
2017-11-23T13:27:06.712Z,6608
2017-11-23T13:28:07.345Z,7516
2017-11-23T13:29:07.970Z,7996
2017-11-23T13:30:08.596Z,7900
2017-11-23T13:31:09.234Z,7140
2017-11-23T13:32:09.859Z,7796
2017-11-23T13:33:10.504Z,9444
2017-11-23T13:34:11.341Z,10720
2017-11-23T13:35:11.947Z,10760
2017-11-23T13:36:12.560Z,9252
2017-11-23T13:37:13.165Z,8812
2017-11-23T13:38:13.787Z,10032
2017-11-23T13:39:14.420Z,12992
2017-11-23T13:40:15.052Z,14540
2017-11-23T13:41:15.878Z,14060
2017-11-23T13:42:16.493Z,13584
2017-11-23T13:43:17.132Z,12440
2017-11-23T13:44:17.752Z,13444
2017-11-23T13:45:18.381Z,13904
2017-11-23T13:46:19.004Z,14760
2017-11-23T13:47:19.618Z,12280
2017-11-23T13:48:20.217Z,10804
2017-11-23T13:49:21.051Z,8152
2017-11-23T13:50:21.667Z,6780
2017-11-23T13:51:22.300Z,6000
2017-11-23T13:52:22.934Z,6124
2017-11-23T13:53:23.566Z,6144
2017-11-23T13:54:24.175Z,8148
2017-11-23T13:55:24.786Z,8036
2017-11-23T13:56:25.394Z,6860
2017-11-23T13:57:26.000Z,6684
2017-11-23T13:58:26.625Z,7776
2017-11-23T13:59:27.235Z,8800
2017-11-23T14:00:27.856Z,9604
2017-11-23T14:01:28.481Z,9620
2017-11-23T14:02:29.099Z,8276
2017-11-23T14:03:29.716Z,6708